Holyoke, CO

8:26 PM MST on March 02, 2015 (GMT -0700)
Imperial Municipal | Change Station
CLOSE
Current Station
Airport
Location: Imperial,
Elevation: 3274 ft
Nearby Weather Stations

Elev 3274 ft 40.51 °N, 101.62 °W | Updated 33 minutes ago

Overcast
Overcast
30 °F
Feels Like 19 °F
N
16
Wind Variable Wind from SSE
Gusts 26 mph

Today
High -- | Low -- °F
--% Chance of Precip.
Yesterday
High -- | Low -- °F
Precip. -- in
6:21 AM 5:41 PM
Waxing Gibbous, 94% visible
Pressure 29.77 in
Visibility 4.0 miles
Clouds
Windchill 19 °F
Dew Point 27 °F
Humidity 88%
Rainfall 0.00 in
Snow Depth Not available.
UV Not available.
Pollen 3.80 out of 12
Air Quality Not available.
Flu Activity Not available.
METAR KIML 030253Z AUTO 16014G23KT 4SM BR M01/M03 A2969 RMK AO2 SLP080 T10111028 58033

More Conditions Fewer Conditions

Pressure 29.77 in
Visibility 4.0 miles
Clouds
Windchill 19 °F
Dew Point 27 °F
Humidity 88%
Rainfall 0.00 in
Snow Depth Not available.
UV Not available.
Pollen 3.80 out of 12
Air Quality Not available.
Flu Activity Not available.
METAR KIML 030253Z AUTO 16014G23KT 4SM BR M01/M03 A2969 RMK AO2 SLP080 T10111028 58033

More Conditions Fewer Conditions

10-Day Weather Forecast

Almanac

Astronomy

Mar. 02, 2015 Rise Set
Actual Time
Civil Twilight
Nautical Twilight
Astronomical Twilight
Moon
Length of Visible Light
Length of Day
Tomorrow will be .
, % of the Moon is Illuminated

Today's Extremes

State Highs State Lows

Community

WunderPhotos

Upload Photos

1,802,057 photos uploaded!

WunderBlogs® & News

Nearby

Air Quality

  Air Quality AQ Index Pollutant
Not available.

Snow Depth

Station Depth Elevation

Earthquake Activity

City Distance Mag. Time & Date
Minimum magnitude displayed is 2.5.

Coastal Water Temperatures

Place Temperature

Nearby Weather Stations